createdAt,value
2022-12-01T00:00:07.308Z,101542.97
2022-12-01T00:02:42.431Z,101542.97
2022-12-01T00:05:16.252Z,101550.00
2022-12-01T00:07:50.395Z,101547.38
2022-12-01T00:10:31.579Z,101547.38
2022-12-01T00:13:07.488Z,101546.47
2022-12-01T00:15:40.876Z,101546.47
2022-12-01T00:18:15.753Z,101548.22
2022-12-01T00:20:56.073Z,101550.88
2022-12-01T00:23:29.606Z,101550.00
2022-12-01T00:26:07.123Z,101552.66
2022-12-01T00:28:40.586Z,101549.09
2022-12-01T00:31:14.690Z,101553.53
2022-12-01T00:33:49.632Z,101549.09
2022-12-01T00:36:24.074Z,101547.38
2022-12-01T00:38:58.202Z,101554.41
2022-12-01T00:41:31.739Z,101541.19
2022-12-01T00:44:05.998Z,101542.09
2022-12-01T00:46:39.653Z,101546.47
2022-12-01T00:49:15.785Z,101531.53
2022-12-01T00:51:49.424Z,101535.91
2022-12-01T00:54:23.028Z,101528.88
2022-12-01T00:56:56.579Z,101534.16
2022-12-01T00:59:30.245Z,101533.25
2022-12-01T01:02:04.023Z,101527.09
2022-12-01T01:04:39.635Z,101532.44
2022-12-01T01:07:13.087Z,101527.97
2022-12-01T01:09:46.868Z,101527.97
2022-12-01T01:12:20.326Z,101525.38
2022-12-01T01:14:53.887Z,101525.34
2022-12-01T01:17:28.132Z,101526.22
2022-12-01T01:20:05.103Z,101524.44
2022-12-01T01:22:38.639Z,101522.69
2022-12-01T01:25:12.305Z,101520.06
2022-12-01T01:27:45.992Z,101516.50
2022-12-01T01:30:20.098Z,101527.97
2022-12-01T01:32:53.627Z,101519.16
2022-12-01T01:35:28.655Z,101526.22
2022-12-01T01:38:02.377Z,101522.72
2022-12-01T01:40:35.921Z,101522.72
2022-12-01T01:43:16.324Z,101528.00
2022-12-01T01:45:50.096Z,101522.72
2022-12-01T01:48:23.685Z,101528.88
2022-12-01T01:50:58.840Z,101521.81
2022-12-01T01:53:33.172Z,101516.53
2022-12-01T01:56:08.663Z,101520.03
2022-12-01T01:58:42.934Z,101524.44
2022-12-01T02:01:16.833Z,101514.78
2022-12-01T02:03:52.799Z,101511.25
2022-12-01T02:06:27.829Z,101510.38
2022-12-01T02:09:01.321Z,101513.00
2022-12-01T02:11:54.371Z,101509.50
2022-12-01T02:14:42.241Z,101512.16
2022-12-01T02:17:27.493Z,101512.13
2022-12-01T02:20:39.694Z,101517.41
2022-12-01T02:23:39.419Z,101513.00
2022-12-01T02:26:33.130Z,101513.00
2022-12-01T02:29:39.969Z,101514.78
2022-12-01T02:32:26.261Z,101513.88
2022-12-01T02:35:05.841Z,101512.13
2022-12-01T02:37:48.957Z,101505.09
2022-12-01T02:40:28.313Z,101506.84
2022-12-01T02:43:06.957Z,101496.28
2022-12-01T02:45:47.468Z,101498.94
2022-12-01T02:48:27.296Z,101501.59
2022-12-01T02:51:06.827Z,101502.44
2022-12-01T02:53:40.462Z,101498.03
2022-12-01T02:56:16.122Z,101498.03
2022-12-01T02:58:49.760Z,101498.03
2022-12-01T03:01:44.211Z,101498.03
2022-12-01T03:04:40.690Z,101501.59
2022-12-01T03:07:27.267Z,101500.69
2022-12-01T03:10:11.930Z,101491.03
2022-12-01T03:12:59.528Z,101491.03
2022-12-01T03:15:37.424Z,101499.81
2022-12-01T03:18:18.368Z,101492.75
2022-12-01T03:21:00.792Z,101494.53
2022-12-01T03:23:39.080Z,101498.94
2022-12-01T03:26:17.671Z,101495.38
2022-12-01T03:28:55.940Z,101492.72
2022-12-01T03:31:34.365Z,101495.38
2022-12-01T03:34:14.502Z,101493.63
2022-12-01T03:36:54.019Z,101497.16
2022-12-01T03:39:33.069Z,101494.50
2022-12-01T03:42:15.386Z,101499.78
2022-12-01T03:44:52.674Z,101497.16
2022-12-01T03:47:29.693Z,101497.16
2022-12-01T03:50:05.374Z,101496.28
2022-12-01T03:52:48.672Z,101488.38
2022-12-01T03:55:26.247Z,101491.00
2022-12-01T03:58:04.730Z,101491.00
2022-12-01T04:00:39.352Z,101486.59
2022-12-01T04:03:19.266Z,101498.03
2022-12-01T04:05:53.235Z,101492.75
2022-12-01T04:08:28.348Z,101491.00
2022-12-01T04:11:21.961Z,101493.66
2022-12-01T04:13:54.430Z,101491.88
2022-12-01T04:16:28.177Z,101494.50
2022-12-01T04:19:01.955Z,101499.78
2022-12-01T04:21:35.502Z,101488.34
2022-12-01T04:24:10.687Z,101491.88
2022-12-01T04:26:46.168Z,101491.84
2022-12-01T04:29:20.013Z,101490.06
2022-12-01T04:31:53.568Z,101497.13
2022-12-01T04:34:27.088Z,101496.25
2022-12-01T04:37:00.612Z,101502.41
2022-12-01T04:39:35.742Z,101498.00
2022-12-01T04:42:09.602Z,101498.00
2022-12-01T04:44:43.132Z,101504.16
2022-12-01T04:47:16.580Z,101498.88
2022-12-01T04:49:50.266Z,101498.88
2022-12-01T04:52:23.641Z,101502.44
2022-12-01T04:54:58.648Z,101509.44
2022-12-01T04:57:32.200Z,101510.31
2022-12-01T05:00:13.169Z,101505.94
2022-12-01T05:02:46.718Z,101506.78
2022-12-01T05:05:20.426Z,101508.56
2022-12-01T05:07:54.001Z,101507.66
2022-12-01T05:10:29.090Z,101501.50
2022-12-01T05:13:02.833Z,101504.13
2022-12-01T05:15:36.507Z,101504.13
2022-12-01T05:18:10.084Z,101506.78
2022-12-01T05:20:57.987Z,101503.28
2022-12-01T05:23:33.240Z,101505.00
2022-12-01T05:26:10.190Z,101508.56
2022-12-01T05:28:43.825Z,101504.13
2022-12-01T05:31:17.545Z,101511.19
2022-12-01T05:33:51.182Z,101510.28
2022-12-01T05:36:24.900Z,101505.00
2022-12-01T05:38:58.530Z,101512.06
2022-12-01T05:41:33.638Z,101513.84
2022-12-01T05:44:07.308Z,101512.94
2022-12-01T05:46:40.863Z,101511.22
2022-12-01T05:49:14.415Z,101516.47
2022-12-01T05:51:48.203Z,101514.72
2022-12-01T05:54:21.874Z,101514.72
2022-12-01T05:56:56.840Z,101512.94
2022-12-01T05:59:30.574Z,101506.78
2022-12-01T06:02:04.108Z,101508.56
2022-12-01T06:04:37.655Z,101513.81
2022-12-01T06:07:11.248Z,101512.06
2022-12-01T06:09:48.258Z,101511.19
2022-12-01T06:12:23.444Z,101512.94
2022-12-01T06:14:57.097Z,101516.47
2022-12-01T06:17:34.573Z,101511.19
2022-12-01T06:20:12.353Z,101509.41
2022-12-01T06:22:45.924Z,101507.66
2022-12-01T06:25:19.643Z,101509.41
2022-12-01T06:27:58.816Z,101512.94
2022-12-01T06:30:33.889Z,101512.06
2022-12-01T06:33:10.172Z,101516.47
2022-12-01T06:35:43.767Z,101520.84
2022-12-01T06:38:17.300Z,101520.88
2022-12-01T06:40:51.993Z,101517.34
2022-12-01T06:43:26.967Z,101515.56
2022-12-01T06:46:02.358Z,101516.47
2022-12-01T06:48:36.867Z,101520.84
2022-12-01T06:51:11.095Z,101517.34
2022-12-01T06:53:44.937Z,101524.38
2022-12-01T06:56:21.471Z,101527.91
2022-12-01T06:58:57.600Z,101524.41
2022-12-01T07:01:33.488Z,101522.63
2022-12-01T07:04:06.942Z,101518.22
2022-12-01T07:06:40.395Z,101520.88
2022-12-01T07:09:13.990Z,101521.75
2022-12-01T07:11:47.543Z,101520.00
2022-12-01T07:14:25.333Z,101528.81
2022-12-01T07:17:04.811Z,101533.25
2022-12-01T07:19:38.498Z,101526.19
2022-12-01T07:22:13.117Z,101529.72
2022-12-01T07:24:46.703Z,101529.72
2022-12-01T07:27:20.301Z,101529.75
2022-12-01T07:29:56.248Z,101535.91
2022-12-01T07:32:40.809Z,101529.75
2022-12-01T07:35:14.647Z,101524.47
2022-12-01T07:37:48.115Z,101529.75
2022-12-01T07:40:22.679Z,101533.28
2022-12-01T07:42:58.884Z,101535.91
2022-12-01T07:45:33.771Z,101532.41
2022-12-01T07:48:07.754Z,101532.44
2022-12-01T07:50:40.944Z,101528.09
2022-12-01T07:53:14.588Z,101532.47
2022-12-01T07:55:52.760Z,101531.56
2022-12-01T07:58:28.637Z,101529.84
2022-12-01T08:01:09.222Z,101528.94
2022-12-01T08:03:45.996Z,101536.00
2022-12-01T08:06:20.312Z,101533.34
2022-12-01T08:08:54.267Z,101530.72
2022-12-01T08:11:29.605Z,101536.03
2022-12-01T08:14:03.417Z,101539.53
2022-12-01T08:16:38.256Z,101537.75
2022-12-01T08:19:14.447Z,101528.97
2022-12-01T08:21:47.884Z,101542.19
2022-12-01T08:24:25.794Z,101543.06
2022-12-01T08:26:59.246Z,101543.97
2022-12-01T08:29:32.798Z,101548.34
2022-12-01T08:32:08.339Z,101543.06
2022-12-01T08:34:41.808Z,101541.31
2022-12-01T08:37:16.094Z,101541.31
2022-12-01T08:39:52.430Z,101543.97
2022-12-01T08:42:25.860Z,101550.16
2022-12-01T08:45:02.105Z,101550.16
2022-12-01T08:47:37.081Z,101546.63
2022-12-01T08:50:11.166Z,101553.69
2022-12-01T08:52:45.740Z,101552.78
2022-12-01T08:55:24.008Z,101557.19
2022-12-01T08:57:59.817Z,101561.63
2022-12-01T09:00:36.438Z,101559.84
2022-12-01T09:03:13.277Z,101547.50
2022-12-01T09:05:46.718Z,101552.78
2022-12-01T09:08:35.975Z,101553.69
2022-12-01T09:11:12.341Z,101558.09
2022-12-01T09:13:53.025Z,101553.69
2022-12-01T09:16:27.968Z,101550.16
2022-12-01T09:19:03.171Z,101551.06
2022-12-01T09:21:38.337Z,101548.41
2022-12-01T09:24:13.404Z,101542.22
2022-12-01T09:26:47.368Z,101543.13
2022-12-01T09:29:20.442Z,101536.09
2022-12-01T09:31:56.933Z,101542.22
2022-12-01T09:34:31.886Z,101540.50
2022-12-01T09:37:05.413Z,101536.09
2022-12-01T09:39:38.855Z,101541.38
2022-12-01T09:42:18.706Z,101540.50
2022-12-01T09:44:54.496Z,101546.66
2022-12-01T09:47:33.321Z,101536.06
2022-12-01T09:50:14.303Z,101533.44
2022-12-01T09:52:52.157Z,101536.06
2022-12-01T09:55:27.600Z,101537.84
2022-12-01T09:58:02.772Z,101536.06
2022-12-01T10:00:43.026Z,101533.41
2022-12-01T10:03:27.945Z,101531.66
2022-12-01T10:09:08.604Z,101526.34
2022-12-01T10:11:44.644Z,101523.72
2022-12-01T10:14:22.226Z,101520.19
2022-12-01T10:17:04.905Z,101515.81
2022-12-01T10:19:48.013Z,101521.09
2022-12-01T10:22:44.712Z,101512.28
2022-12-01T10:25:24.207Z,101509.63
2022-12-01T10:28:18.960Z,101507.00
2022-12-01T10:30:53.088Z,101510.50
2022-12-01T10:33:28.132Z,101505.22
2022-12-01T10:36:01.656Z,101492.91
2022-12-01T10:38:39.573Z,101492.00
2022-12-01T10:41:16.435Z,101484.94
2022-12-01T10:43:53.272Z,101481.44
2022-12-01T10:46:38.978Z,101480.56
2022-12-01T10:49:15.812Z,101478.78
2022-12-01T10:51:55.042Z,101482.31
2022-12-01T10:54:36.502Z,101482.31
2022-12-01T10:57:18.125Z,101477.88
2022-12-01T10:59:54.087Z,101477.88
2022-12-01T11:02:30.797Z,101473.50
2022-12-01T11:05:07.816Z,101469.94
2022-12-01T11:07:45.283Z,101471.72
2022-12-01T11:10:24.245Z,101472.59
2022-12-01T11:13:00.572Z,101469.09
2022-12-01T11:15:35.400Z,101473.50
2022-12-01T11:18:23.697Z,101476.16
2022-12-01T11:21:08.484Z,101477.03
2022-12-01T11:23:48.370Z,101470.84
2022-12-01T11:26:26.395Z,101470.84
2022-12-01T11:29:02.596Z,101471.72
2022-12-01T11:31:41.982Z,101484.94
2022-12-01T11:34:20.726Z,101476.16
2022-12-01T11:36:57.075Z,101473.50
2022-12-01T11:39:33.787Z,101473.50
2022-12-01T11:42:20.851Z,101475.25
2022-12-01T11:44:56.712Z,101475.25
2022-12-01T11:47:30.874Z,101466.44
2022-12-01T11:50:27.345Z,101470.88
2022-12-01T11:53:04.654Z,101465.56
2022-12-01T11:58:29.626Z,101461.16
2022-12-01T12:01:05.005Z,101460.28
2022-12-01T12:03:48.828Z,101458.50
2022-12-01T12:06:46.038Z,101458.50
2022-12-01T12:09:45.192Z,101460.28
2022-12-01T12:12:34.789Z,101450.56
2022-12-01T12:15:21.958Z,101452.34
2022-12-01T12:18:23.063Z,101455.00
2022-12-01T12:21:06.213Z,101452.34
2022-12-01T12:24:07.623Z,101456.72
2022-12-01T12:26:59.784Z,101458.50
2022-12-01T12:29:42.860Z,101454.09
2022-12-01T12:32:40.204Z,101458.50
2022-12-01T12:35:29.858Z,101450.59
2022-12-01T12:38:09.490Z,101457.66
2022-12-01T12:40:57.628Z,101457.66
2022-12-01T12:43:41.324Z,101448.84
2022-12-01T12:46:54.547Z,101452.34
2022-12-01T12:49:38.742Z,101449.72
2022-12-01T12:52:17.550Z,101452.34
2022-12-01T12:54:54.689Z,101453.25
2022-12-01T12:57:32.599Z,101448.84
2022-12-01T13:00:10.372Z,101450.59
2022-12-01T13:02:47.821Z,101442.69
2022-12-01T13:05:29.089Z,101444.41
2022-12-01T13:08:05.841Z,101446.19
2022-12-01T13:10:45.819Z,101441.81
2022-12-01T13:13:32.527Z,101443.53
2022-12-01T13:16:15.214Z,101438.25
2022-12-01T13:18:54.300Z,101452.38
2022-12-01T13:21:38.182Z,101439.16
2022-12-01T13:24:19.869Z,101440.91
2022-12-01T13:27:01.971Z,101443.56
2022-12-01T13:29:43.695Z,101439.16
2022-12-01T13:32:30.480Z,101438.28
2022-12-01T13:35:07.497Z,101436.50
2022-12-01T13:37:42.438Z,101438.28
2022-12-01T13:40:23.574Z,101436.50
2022-12-01T13:43:05.499Z,101440.91
2022-12-01T13:45:42.971Z,101440.00
2022-12-01T13:48:31.078Z,101438.28
2022-12-01T13:51:05.282Z,101442.66
2022-12-01T13:53:58.963Z,101434.72
2022-12-01T13:56:46.936Z,101430.34
2022-12-01T14:00:02.503Z,101432.09
2022-12-01T14:02:45.847Z,101444.41
2022-12-01T14:05:48.871Z,101447.06
2022-12-01T14:08:24.106Z,101453.22
2022-12-01T14:11:01.984Z,101460.25
2022-12-01T14:13:53.422Z,101452.34
2022-12-01T14:16:46.157Z,101449.69
2022-12-01T14:19:34.294Z,101458.53
2022-12-01T14:22:09.206Z,101454.09
2022-12-01T14:24:44.768Z,101462.03
2022-12-01T14:27:34.904Z,101455.88
2022-12-01T14:31:00.058Z,101454.97
2022-12-01T14:33:51.217Z,101452.31
2022-12-01T14:36:34.020Z,101453.22
2022-12-01T14:39:14.502Z,101455.88
2022-12-01T14:41:51.749Z,101448.81
2022-12-01T14:44:33.185Z,101447.03
2022-12-01T14:47:12.428Z,101448.81
2022-12-01T14:49:52.523Z,101436.47
2022-12-01T14:52:33.385Z,101443.53
2022-12-01T14:55:31.140Z,101430.31
2022-12-01T14:58:09.062Z,101439.09
2022-12-01T15:00:59.430Z,101437.34
2022-12-01T15:03:37.502Z,101438.22
2022-12-01T15:06:17.144Z,101431.19
2022-12-01T15:09:32.656Z,101433.84
2022-12-01T15:12:09.774Z,101425.91
2022-12-01T15:14:49.824Z,101430.28
2022-12-01T15:17:33.501Z,101430.28
2022-12-01T15:20:32.436Z,101430.28
2022-12-01T15:23:15.102Z,101431.19
2022-12-01T15:25:48.720Z,101435.56
2022-12-01T15:28:24.247Z,101439.09
2022-12-01T15:30:58.828Z,101436.47
2022-12-01T15:33:38.470Z,101437.31
2022-12-01T15:36:12.058Z,101435.56
2022-12-01T15:38:48.716Z,101429.38
2022-12-01T15:41:29.375Z,101428.50
2022-12-01T15:44:05.643Z,101433.81
2022-12-01T15:46:39.281Z,101432.94
2022-12-01T15:49:19.880Z,101433.81
2022-12-01T15:51:55.093Z,101435.56
2022-12-01T15:54:30.448Z,101435.56
2022-12-01T15:57:07.416Z,101437.31
2022-12-01T15:59:42.944Z,101435.56
2022-12-01T16:02:28.494Z,101432.94
2022-12-01T16:05:07.243Z,101434.66
2022-12-01T16:08:11.960Z,101436.41
2022-12-01T16:10:38.625Z,101439.91
2022-12-01T16:13:45.021Z,101440.81
2022-12-01T16:16:35.688Z,101446.09
2022-12-01T16:22:36.095Z,101445.22
2022-12-01T16:25:18.665Z,101443.44
2022-12-01T16:27:54.152Z,101437.28
2022-12-01T16:30:30.344Z,101436.38
2022-12-01T16:33:05.938Z,101439.03
2022-12-01T16:35:39.520Z,101444.28
2022-12-01T16:38:20.544Z,101439.00
2022-12-01T16:44:34.937Z,101447.81
2022-12-01T16:47:15.572Z,101434.63
2022-12-01T16:49:50.685Z,101442.50
2022-12-01T16:55:34.134Z,101437.22
2022-12-01T16:58:07.587Z,101441.63
2022-12-01T17:00:41.236Z,101444.25
2022-12-01T17:03:18.161Z,101434.56
2022-12-01T17:05:52.680Z,101432.78
2022-12-01T17:08:28.284Z,101438.06
2022-12-01T17:11:06.681Z,101438.06
2022-12-01T17:13:40.130Z,101448.59
2022-12-01T17:16:18.797Z,101435.41
2022-12-01T17:18:52.503Z,101438.03
2022-12-01T17:21:26.069Z,101432.72
2022-12-01T17:23:59.550Z,101439.72
2022-12-01T17:26:36.743Z,101430.94
2022-12-01T17:29:11.544Z,101431.81
2022-12-01T17:31:45.135Z,101437.09
2022-12-01T17:34:18.654Z,101430.91
2022-12-01T17:36:52.395Z,101433.56
2022-12-01T17:39:25.875Z,101433.56
2022-12-01T17:42:00.880Z,101437.97
2022-12-01T17:44:34.502Z,101431.81
2022-12-01T17:47:08.012Z,101428.25
2022-12-01T17:49:41.656Z,101423.88
2022-12-01T17:52:15.323Z,101435.31
2022-12-01T17:54:49.359Z,101437.06
2022-12-01T17:57:24.450Z,101432.66
2022-12-01T17:59:58.436Z,101427.34
2022-12-01T18:02:32.078Z,101430.84
2022-12-01T18:05:06.650Z,101429.94
2022-12-01T18:07:40.327Z,101433.44
2022-12-01T18:10:17.423Z,101431.66
2022-12-01T18:12:52.384Z,101441.34
2022-12-01T18:15:31.773Z,101440.44
2022-12-01T18:18:10.522Z,101441.34
2022-12-01T18:20:45.194Z,101427.25
2022-12-01T18:23:21.598Z,101436.88
2022-12-01T18:25:55.184Z,101429.84
2022-12-01T18:28:30.262Z,101435.13
2022-12-01T18:31:08.123Z,101433.31
2022-12-01T18:33:44.149Z,101443.84
2022-12-01T18:36:22.864Z,101442.09
2022-12-01T18:38:58.475Z,101441.19
2022-12-01T18:41:32.434Z,101438.53
2022-12-01T18:44:09.738Z,101436.84
2022-12-01T18:46:43.446Z,101438.50
2022-12-01T18:49:17.289Z,101440.25
2022-12-01T18:51:53.444Z,101436.72
2022-12-01T18:54:29.330Z,101446.38
2022-12-01T18:57:03.018Z,101441.06
2022-12-01T18:59:41.465Z,101441.91
2022-12-01T19:02:15.109Z,101444.53
2022-12-01T19:04:50.317Z,101448.91
2022-12-01T19:07:29.499Z,101439.22
2022-12-01T19:10:03.815Z,101440.09
2022-12-01T19:12:40.958Z,101445.34
2022-12-01T19:15:16.380Z,101442.66
2022-12-01T19:17:50.000Z,101442.63
2022-12-01T19:20:23.541Z,101446.13
2022-12-01T19:22:57.188Z,101443.50
2022-12-01T19:25:30.760Z,101443.50
2022-12-01T19:28:04.553Z,101442.63
2022-12-01T19:30:45.338Z,101448.75
2022-12-01T19:33:22.150Z,101454.03
2022-12-01T19:36:04.817Z,101441.69
2022-12-01T19:38:38.503Z,101452.19
2022-12-01T19:41:13.388Z,101463.56
2022-12-01T19:43:47.909Z,101453.00
2022-12-01T19:46:23.658Z,101449.63
2022-12-01T19:49:00.367Z,101441.59
2022-12-01T19:51:36.375Z,101450.34
2022-12-01T19:54:18.584Z,101440.72
2022-12-01T19:56:52.235Z,101442.44
2022-12-01T19:59:25.915Z,101451.22
2022-12-01T20:02:03.717Z,101449.47
2022-12-01T20:04:38.933Z,101441.56
2022-12-01T20:07:12.416Z,101438.06
2022-12-01T20:09:50.451Z,101445.97
2022-12-01T20:12:24.187Z,101440.72
2022-12-01T20:14:57.807Z,101452.13
2022-12-01T20:17:36.002Z,101446.88
2022-12-01T20:20:10.892Z,101444.25
2022-12-01T20:22:44.431Z,101454.78
2022-12-01T20:25:20.026Z,101454.78
2022-12-01T20:27:53.527Z,101443.38
2022-12-01T20:30:27.155Z,101451.25
2022-12-01T20:33:06.459Z,101440.69
2022-12-01T20:35:42.434Z,101444.13
2022-12-01T20:38:15.928Z,101448.53
2022-12-01T20:40:52.745Z,101449.38
2022-12-01T20:43:26.397Z,101447.63
2022-12-01T20:46:00.484Z,101444.13
2022-12-01T20:48:36.250Z,101447.63
2022-12-01T20:51:14.027Z,101445.91
2022-12-01T20:54:26.292Z,101444.16
2022-12-01T20:56:53.271Z,101440.72
2022-12-01T20:59:26.916Z,101438.97
2022-12-01T21:02:11.219Z,101439.03
2022-12-01T21:04:45.812Z,101440.03
2022-12-01T21:07:22.090Z,101440.91
2022-12-01T21:10:07.219Z,101435.56
2022-12-01T21:12:59.171Z,101439.09
2022-12-01T21:15:36.196Z,101431.19
2022-12-01T21:18:20.450Z,101432.03
2022-12-01T21:21:08.140Z,101433.81
2022-12-01T21:23:41.677Z,101432.03
2022-12-01T21:26:16.556Z,101433.78
2022-12-01T21:28:50.063Z,101430.22
2022-12-01T21:31:24.713Z,101426.75
2022-12-01T21:33:58.608Z,101434.63
2022-12-01T21:36:33.426Z,101426.72
2022-12-01T21:39:15.318Z,101429.34
2022-12-01T21:41:57.555Z,101426.69
2022-12-01T21:44:37.776Z,101427.56
2022-12-01T21:47:18.483Z,101429.31
2022-12-01T21:49:54.331Z,101429.31
2022-12-01T21:52:40.158Z,101426.72
2022-12-01T21:55:33.489Z,101429.38
2022-12-01T21:58:30.305Z,101431.16
2022-12-01T22:01:16.163Z,101422.31
2022-12-01T22:03:49.759Z,101422.28
2022-12-01T22:06:30.550Z,101426.66
2022-12-01T22:09:15.616Z,101430.22
2022-12-01T22:11:54.004Z,101421.34
2022-12-01T22:14:33.760Z,101435.34
2022-12-01T22:17:19.932Z,101434.44
2022-12-01T22:20:02.438Z,101433.53
2022-12-01T22:22:39.492Z,101435.28
2022-12-01T22:25:23.901Z,101430.00
2022-12-01T22:28:00.120Z,101432.72
2022-12-01T22:30:33.488Z,101427.38
2022-12-01T22:33:16.083Z,101426.47
2022-12-01T22:35:51.598Z,101426.47
2022-12-01T22:38:46.647Z,101425.56
2022-12-01T22:41:22.734Z,101423.78
2022-12-01T22:43:59.690Z,101418.53
2022-12-01T22:46:35.620Z,101413.28
2022-12-01T22:49:19.507Z,101415.94
2022-12-01T22:51:56.102Z,101414.16
2022-12-01T22:54:33.876Z,101415.03
2022-12-01T22:57:16.497Z,101417.66
2022-12-01T22:59:52.877Z,101417.66
2022-12-01T23:02:30.928Z,101408.03
2022-12-01T23:05:23.686Z,101406.31
2022-12-01T23:07:58.192Z,101417.66
2022-12-01T23:10:35.275Z,101414.16
2022-12-01T23:13:18.167Z,101410.66
2022-12-01T23:16:04.209Z,101412.38
2022-12-01T23:18:50.849Z,101413.28
2022-12-01T23:21:37.011Z,101405.50
2022-12-01T23:24:17.614Z,101407.13
2022-12-01T23:26:55.310Z,101408.00
2022-12-01T23:29:38.775Z,101397.47
2022-12-01T23:32:16.428Z,101397.47
2022-12-01T23:34:59.883Z,101393.91
2022-12-01T23:37:41.569Z,101398.28
2022-12-01T23:40:43.750Z,101395.66
2022-12-01T23:43:27.334Z,101393.91
2022-12-01T23:46:18.408Z,101389.50
2022-12-01T23:49:12.466Z,101394.78
2022-12-01T23:52:02.486Z,101397.41
2022-12-01T23:54:53.182Z,101399.19
2022-12-01T23:57:48.419Z,101396.53
